Skip Navigation Links Skip Navigation Links

Current Weather

Heathrow, London

For information only: do not use for flight planning or navigation.
Latest weather
Observation time Tuesday, September 28, 2021 11:50 AM BST
Local time Tuesday, September 28, 2021 12:18 PM BST
Flight conditions Visual Meteorological Conditions
Winds
Wind direction South (180°)
Wind speed 15 mph
Visibility 6.2 mi.
Sky condition
Ceiling 3,000 ft. broken clouds
Cloud layer scattered clouds 2,200 ft.
Cloud layer broken clouds 3,000 ft.
Temperature 63°F
Dewpoint 54°F
Altimeter 30.00 in.Hg
Derived measurements
Relative humidity 72%
Density altitude 339 ft.
Remarks
Corrected report.
No significant changes expected in the next two hours.
METAR COR EGLL 281050Z 18013KT 9999 SCT022 BKN030 17/12 Q1016 NOSIG

Settings

Location code

InnerDrive.Weather 4.0.6770.0 Release CLR 4.0.30319.42000
Copyright ©2018 Inner Drive Technology. All rights reserved. Portions Copyright ©1986-2018 David Braverman.

Find weather

Site navigation


Skip Navigation Links

Place info

Page info

PayPal - The safer, easier way to pay online!

Return home.

Copyright ©2021 Inner Drive Technology. Purveyors of fine, hand-crafted computer software. Page printed 2021-09-28T11:18:27 UTC.